createdAt,value
2019-01-05T00:01:18.781Z,25.77
2019-01-05T00:04:09.675Z,29.30
2019-01-05T00:07:12.351Z,26.93
2019-01-05T00:10:21.436Z,28.83
2019-01-05T00:13:04.916Z,30.03
2019-01-05T00:15:55.323Z,28.90
2019-01-05T00:18:49.221Z,33.03
2019-01-05T00:21:50.852Z,36.07
2019-01-05T00:24:47.780Z,29.27
2019-01-05T00:27:37.809Z,30.60
2019-01-05T00:30:27.765Z,33.63
2019-01-05T00:33:17.860Z,32.70
2019-01-05T00:36:35.947Z,29.30
2019-01-05T00:39:36.541Z,26.20
2019-01-05T00:42:35.568Z,26.00
2019-01-05T00:45:26.771Z,27.07
2019-01-05T00:48:19.946Z,29.40
2019-01-05T00:51:10.301Z,26.40
2019-01-05T00:54:01.304Z,21.67
2019-01-05T00:56:51.619Z,25.00
2019-01-05T00:59:43.611Z,26.10
2019-01-05T01:02:33.247Z,25.57
2019-01-05T01:05:42.701Z,18.10
2019-01-05T01:08:38.161Z,22.03
2019-01-05T01:11:41.288Z,18.77
2019-01-05T01:14:33.020Z,19.17
2019-01-05T01:17:39.444Z,18.20
2019-01-05T01:20:30.382Z,18.30
2019-01-05T01:23:21.163Z,14.03
2019-01-05T01:26:18.720Z,14.90
2019-01-05T01:29:08.619Z,14.80
2019-01-05T01:31:58.174Z,14.77
2019-01-05T01:34:41.742Z,14.13
2019-01-05T01:37:35.706Z,11.77
2019-01-05T01:40:28.365Z,14.60
2019-01-05T01:43:32.918Z,11.93
2019-01-05T01:46:26.721Z,11.43
2019-01-05T01:49:20.487Z,13.30
2019-01-05T01:52:16.281Z,10.60
2019-01-05T01:55:10.951Z,14.53
2019-01-05T01:58:04.180Z,14.23
2019-01-05T02:00:58.322Z,16.13
2019-01-05T02:03:48.015Z,14.57
2019-01-05T02:06:39.637Z,15.30
2019-01-05T02:09:31.928Z,13.87
2019-01-05T02:12:26.925Z,14.87
2019-01-05T02:15:28.197Z,15.63
2019-01-05T02:18:55.960Z,13.50
2019-01-05T02:22:32.027Z,12.60
2019-01-05T02:26:26.775Z,14.40
2019-01-05T02:30:28.457Z,11.93
2019-01-05T02:34:23.367Z,12.70
2019-01-05T02:37:51.216Z,10.33
2019-01-05T02:41:17.327Z,11.80
2019-01-05T02:44:59.931Z,11.03
2019-01-05T02:48:58.431Z,11.13
2019-01-05T02:52:50.150Z,8.83
2019-01-05T02:56:46.776Z,8.90
2019-01-05T03:00:26.719Z,9.03
2019-01-05T03:04:31.381Z,10.80
2019-01-05T03:08:11.957Z,9.77
2019-01-05T03:12:07.182Z,8.73
2019-01-05T03:15:52.205Z,7.30
2019-01-05T03:19:31.295Z,6.03
2019-01-05T03:23:18.391Z,6.10
2019-01-05T03:27:27.833Z,5.90
2019-01-05T03:31:32.146Z,6.30
2019-01-05T03:35:28.148Z,5.33
2019-01-05T03:39:23.197Z,5.73
2019-01-05T03:43:14.783Z,5.97
2019-01-05T03:46:57.990Z,5.93
2019-01-05T03:50:43.190Z,5.37
2019-01-05T03:54:45.740Z,5.57
2019-01-05T03:58:36.753Z,5.70
2019-01-05T04:02:34.056Z,5.33
2019-01-05T04:06:12.190Z,5.57
2019-01-05T04:10:09.291Z,5.30
2019-01-05T04:13:55.527Z,6.23
2019-01-05T04:18:09.376Z,6.13
2019-01-05T04:21:48.713Z,6.37
2019-01-05T04:25:36.081Z,6.33
2019-01-05T04:29:21.692Z,4.83
2019-01-05T04:33:05.872Z,4.63
2019-01-05T04:37:39.254Z,5.30
2019-01-05T04:41:30.956Z,4.87
2019-01-05T04:45:16.506Z,4.27
2019-01-05T04:49:02.278Z,5.00
2019-01-05T04:53:13.007Z,4.43
2019-01-05T04:57:02.539Z,4.37
2019-01-05T05:01:09.244Z,4.20
2019-01-05T05:05:09.880Z,4.93
2019-01-05T05:09:16.547Z,4.33
2019-01-05T05:13:08.127Z,5.23
2019-01-05T05:17:18.010Z,4.80
2019-01-05T05:21:05.387Z,4.53
2019-01-05T05:25:26.381Z,5.07
2019-01-05T05:29:38.517Z,5.93
2019-01-05T05:33:25.950Z,5.93
2019-01-05T05:37:10.444Z,7.80
2019-01-05T05:40:53.702Z,6.43
2019-01-05T05:44:59.435Z,9.13
2019-01-05T05:48:47.989Z,9.33
2019-01-05T05:52:43.699Z,8.23
2019-01-05T05:56:25.592Z,8.83
2019-01-05T06:00:00.011Z,8.47
2019-01-05T06:03:58.909Z,8.20
2019-01-05T06:07:50.343Z,9.90
2019-01-05T06:12:04.583Z,8.03
2019-01-05T06:16:11.282Z,8.80
2019-01-05T06:19:59.080Z,7.70
2019-01-05T06:24:01.107Z,7.40
2019-01-05T06:27:55.131Z,9.47
2019-01-05T06:31:28.595Z,7.50
2019-01-05T06:35:19.717Z,12.30
2019-01-05T06:39:20.106Z,8.83
2019-01-05T06:42:56.028Z,8.00
2019-01-05T06:46:56.719Z,7.43
2019-01-05T06:50:39.188Z,6.57
2019-01-05T06:54:23.002Z,10.50
2019-01-05T06:58:10.677Z,6.80
2019-01-05T07:01:47.919Z,7.27
2019-01-05T07:05:53.940Z,4.73
2019-01-05T07:09:47.378Z,6.33
2019-01-05T07:13:40.537Z,5.97
2019-01-05T07:17:42.718Z,7.07
2019-01-05T07:21:39.800Z,6.53
2019-01-05T07:25:35.936Z,5.80
2019-01-05T07:29:29.924Z,5.53
2019-01-05T07:33:24.361Z,8.90
2019-01-05T07:37:29.884Z,8.43
2019-01-05T07:41:46.582Z,6.10
2019-01-05T07:45:46.994Z,6.93
2019-01-05T07:49:34.567Z,7.53
2019-01-05T07:53:13.612Z,6.87
2019-01-05T07:57:10.858Z,6.47
2019-01-05T08:01:04.671Z,9.10
2019-01-05T08:05:09.543Z,6.30
2019-01-05T08:09:08.030Z,5.97
2019-01-05T08:13:16.421Z,7.07
2019-01-05T08:17:12.395Z,8.83
2019-01-05T08:21:03.443Z,8.97
2019-01-05T08:25:21.232Z,6.33
2019-01-05T08:29:21.284Z,11.17
2019-01-05T08:33:16.449Z,9.97
2019-01-05T08:37:10.697Z,9.37
2019-01-05T08:41:05.977Z,6.33
2019-01-05T08:45:23.820Z,7.07
2019-01-05T08:49:01.222Z,6.40
2019-01-05T08:53:07.560Z,7.03
2019-01-05T08:57:11.996Z,6.17
2019-01-05T09:00:56.704Z,9.40
2019-01-05T09:05:09.740Z,5.23
2019-01-05T09:09:09.058Z,6.20
2019-01-05T09:13:22.656Z,10.87
2019-01-05T09:17:30.923Z,9.60
2019-01-05T09:22:16.074Z,5.83
2019-01-05T09:26:00.930Z,5.40
2019-01-05T09:29:56.432Z,6.97
2019-01-05T09:34:03.647Z,11.20
2019-01-05T09:38:09.448Z,5.63
2019-01-05T09:42:06.186Z,4.30
2019-01-05T09:46:20.851Z,6.47
2019-01-05T09:49:53.177Z,6.87
2019-01-05T09:53:24.121Z,6.23
2019-01-05T09:57:17.433Z,6.87
2019-01-05T10:01:21.498Z,9.40
2019-01-05T10:05:12.294Z,6.93
2019-01-05T10:09:15.417Z,16.30
2019-01-05T10:13:12.981Z,7.63
2019-01-05T10:17:33.151Z,7.50
2019-01-05T10:22:00.666Z,8.03
2019-01-05T10:25:52.465Z,8.17
2019-01-05T10:30:21.099Z,7.67
2019-01-05T10:34:16.710Z,8.80
2019-01-05T10:37:55.193Z,14.13
2019-01-05T10:41:36.091Z,6.80
2019-01-05T10:45:29.888Z,7.03
2019-01-05T10:49:35.441Z,5.53
2019-01-05T10:53:37.962Z,7.67
2019-01-05T10:57:48.843Z,10.13
2019-01-05T11:02:05.301Z,6.23
2019-01-05T11:06:03.872Z,6.97
2019-01-05T11:10:13.786Z,7.67
2019-01-05T11:14:40.623Z,13.53
2019-01-05T11:18:18.208Z,15.13
2019-01-05T11:22:25.589Z,7.30
2019-01-05T11:26:30.845Z,6.37
2019-01-05T11:30:24.644Z,23.93
2019-01-05T11:34:06.099Z,9.00
2019-01-05T11:38:01.680Z,6.87
2019-01-05T11:42:21.388Z,10.27
2019-01-05T11:46:13.763Z,6.43
2019-01-05T11:49:49.055Z,7.33
2019-01-05T11:54:08.961Z,6.77
2019-01-05T11:58:03.741Z,6.83
2019-01-05T12:02:19.632Z,5.43
2019-01-05T12:06:10.787Z,6.83
2019-01-05T12:10:18.288Z,10.03
2019-01-05T12:14:22.293Z,13.10
2019-01-05T12:17:45.176Z,10.03
2019-01-05T12:21:35.218Z,8.00
2019-01-05T12:25:25.618Z,7.83
2019-01-05T12:29:28.998Z,7.83
2019-01-05T12:33:24.451Z,6.73
2019-01-05T12:37:08.400Z,7.17
2019-01-05T12:40:50.926Z,8.33
2019-01-05T12:44:57.039Z,7.77
2019-01-05T12:48:57.467Z,6.57
2019-01-05T12:53:11.263Z,7.03
2019-01-05T12:56:58.248Z,8.10
2019-01-05T13:01:10.611Z,9.23
2019-01-05T13:05:01.644Z,8.40
2019-01-05T13:09:11.310Z,8.93
2019-01-05T13:13:04.440Z,6.00
2019-01-05T13:17:02.055Z,8.90
2019-01-05T13:21:32.508Z,7.93
2019-01-05T13:25:24.941Z,9.33
2019-01-05T13:29:32.754Z,8.23
2019-01-05T13:33:19.053Z,8.43
2019-01-05T13:37:15.833Z,4.40
2019-01-05T13:41:39.550Z,8.43
2019-01-05T13:45:42.453Z,6.70
2019-01-05T13:49:49.558Z,7.33
2019-01-05T13:53:21.682Z,4.30
2019-01-05T13:56:35.463Z,6.13
2019-01-05T13:59:28.899Z,5.63
2019-01-05T14:02:31.780Z,6.77
2019-01-05T14:05:23.281Z,7.50
2019-01-05T14:08:12.584Z,5.87
2019-01-05T14:11:02.616Z,7.07
2019-01-05T14:14:08.871Z,6.20
2019-01-05T14:16:58.517Z,6.77
2019-01-05T14:19:53.260Z,7.27
2019-01-05T14:22:44.558Z,6.77
2019-01-05T14:25:36.638Z,7.27
2019-01-05T14:28:26.092Z,6.00
2019-01-05T14:31:25.654Z,6.33
2019-01-05T14:34:31.579Z,5.70
2019-01-05T14:37:31.356Z,7.53
2019-01-05T14:40:24.991Z,8.07
2019-01-05T14:43:30.764Z,7.27
2019-01-05T14:46:30.427Z,9.17
2019-01-05T14:49:27.146Z,7.63
2019-01-05T14:52:20.526Z,8.60
2019-01-05T14:55:02.176Z,8.90
2019-01-05T14:57:51.829Z,6.30
2019-01-05T15:00:41.362Z,8.57
2019-01-05T15:03:32.165Z,8.30
2019-01-05T15:06:21.396Z,7.90
2019-01-05T15:09:12.187Z,8.77
2019-01-05T15:12:01.803Z,7.57
2019-01-05T15:14:51.308Z,6.93
2019-01-05T15:17:51.502Z,8.57
2019-01-05T15:20:42.618Z,5.97
2019-01-05T15:23:31.984Z,5.80
2019-01-05T15:26:21.432Z,7.17
2019-01-05T15:29:30.553Z,6.33
2019-01-05T15:32:27.020Z,5.67
2019-01-05T15:35:21.318Z,8.17
2019-01-05T15:38:10.835Z,4.83
2019-01-05T15:41:07.517Z,6.07
2019-01-05T15:44:13.310Z,5.57
2019-01-05T15:47:13.207Z,7.47
2019-01-05T15:50:09.697Z,5.10
2019-01-05T15:52:59.077Z,5.47
2019-01-05T15:55:46.712Z,7.27
2019-01-05T15:58:37.533Z,6.77
2019-01-05T16:01:28.501Z,8.87
2019-01-05T16:04:18.294Z,5.47
2019-01-05T16:07:07.815Z,6.10
2019-01-05T16:09:57.039Z,5.03
2019-01-05T16:12:46.407Z,6.23
2019-01-05T16:15:37.490Z,6.60
2019-01-05T16:18:26.842Z,5.97
2019-01-05T16:21:29.951Z,7.00
2019-01-05T16:24:20.038Z,6.70
2019-01-05T16:27:19.802Z,5.67
2019-01-05T16:30:25.861Z,5.30
2019-01-05T16:33:17.609Z,6.43
2019-01-05T16:36:02.722Z,8.60
2019-01-05T16:38:52.390Z,6.37
2019-01-05T16:41:41.774Z,7.57
2019-01-05T16:44:30.869Z,7.90
2019-01-05T16:47:30.632Z,5.60
2019-01-05T16:50:37.622Z,8.63
2019-01-05T16:53:34.437Z,6.80
2019-01-05T16:56:31.030Z,5.67
2019-01-05T16:59:20.441Z,9.00
2019-01-05T17:02:10.226Z,6.83
2019-01-05T17:05:12.858Z,8.30
2019-01-05T17:07:57.091Z,8.63
2019-01-05T17:10:47.874Z,9.60
2019-01-05T17:13:37.816Z,9.43
2019-01-05T17:16:37.425Z,8.80
2019-01-05T17:19:36.461Z,7.67
2019-01-05T17:22:22.572Z,7.17
2019-01-05T17:25:15.851Z,5.90
2019-01-05T17:28:09.934Z,6.73
2019-01-05T17:31:12.871Z,8.37
2019-01-05T17:34:21.824Z,7.27
2019-01-05T17:37:19.109Z,5.63
2019-01-05T17:40:21.802Z,6.97
2019-01-05T17:43:25.193Z,5.50
2019-01-05T17:46:14.585Z,4.73
2019-01-05T17:49:08.416Z,5.17
2019-01-05T17:52:04.975Z,4.73
2019-01-05T17:55:05.196Z,6.70
2019-01-05T17:58:04.736Z,4.87
2019-01-05T18:00:56.214Z,6.90
2019-01-05T18:04:02.130Z,6.57
2019-01-05T18:06:55.684Z,5.53
2019-01-05T18:09:52.695Z,6.70
2019-01-05T18:12:52.307Z,6.40
2019-01-05T18:15:49.071Z,5.87
2019-01-05T18:18:38.514Z,7.67
2019-01-05T18:21:35.463Z,5.70
2019-01-05T18:24:36.823Z,5.63
2019-01-05T18:27:24.799Z,7.37
2019-01-05T18:30:18.174Z,5.77
2019-01-05T18:33:12.123Z,5.00
2019-01-05T18:36:01.390Z,6.67
2019-01-05T18:38:40.906Z,7.27
2019-01-05T18:41:40.845Z,5.77
2019-01-05T18:44:30.324Z,5.50
2019-01-05T18:47:20.269Z,6.00
2019-01-05T18:50:10.379Z,6.07
2019-01-05T18:52:59.599Z,7.07
2019-01-05T18:55:55.628Z,7.40
2019-01-05T18:58:45.194Z,6.50
2019-01-05T19:01:31.730Z,7.60
2019-01-05T19:04:21.475Z,7.30
2019-01-05T19:07:11.101Z,7.03
2019-01-05T19:10:10.667Z,8.13
2019-01-05T19:13:16.479Z,8.37
2019-01-05T19:16:16.525Z,8.70
2019-01-05T19:19:06.076Z,7.40
2019-01-05T19:21:55.834Z,7.27
2019-01-05T19:24:45.715Z,6.63
2019-01-05T19:27:48.770Z,7.53
2019-01-05T19:30:42.467Z,6.20
2019-01-05T19:33:33.607Z,6.90
2019-01-05T19:36:37.889Z,6.53
2019-01-05T19:39:27.230Z,6.67
2019-01-05T19:42:36.123Z,7.07
2019-01-05T19:45:26.494Z,7.27
2019-01-05T19:48:32.452Z,7.50
2019-01-05T19:51:29.233Z,7.37
2019-01-05T19:54:18.712Z,7.83
2019-01-05T19:57:27.859Z,9.07
2019-01-05T20:00:19.037Z,9.23
2019-01-05T20:03:14.364Z,7.73
2019-01-05T20:06:11.251Z,9.27
2019-01-05T20:09:00.361Z,8.30
2019-01-05T20:12:06.524Z,10.17
2019-01-05T20:15:11.373Z,8.03
2019-01-05T20:18:10.915Z,8.97
2019-01-05T20:21:00.481Z,7.90
2019-01-05T20:23:54.977Z,7.87
2019-01-05T20:26:44.647Z,7.07
2019-01-05T20:29:32.018Z,7.27
2019-01-05T20:32:40.404Z,8.10
2019-01-05T20:35:34.289Z,7.93
2019-01-05T20:38:34.437Z,8.43
2019-01-05T20:41:23.951Z,6.97
2019-01-05T20:44:23.853Z,6.67
2019-01-05T20:47:28.391Z,6.53
2019-01-05T20:50:37.040Z,6.77
2019-01-05T20:53:34.026Z,6.30
2019-01-05T20:56:26.158Z,5.90
2019-01-05T20:59:15.885Z,5.80
2019-01-05T21:02:05.448Z,6.27
2019-01-05T21:04:59.527Z,6.90
2019-01-05T21:07:57.408Z,7.07
2019-01-05T21:10:55.023Z,7.73
2019-01-05T21:13:51.611Z,6.67
2019-01-05T21:16:41.993Z,7.57
2019-01-05T21:19:45.025Z,6.73
2019-01-05T21:22:41.564Z,8.23
2019-01-05T21:25:44.158Z,6.77
2019-01-05T21:28:38.015Z,7.07
2019-01-05T21:31:32.453Z,5.90
2019-01-05T21:34:26.060Z,5.77
2019-01-05T21:37:13.515Z,6.10
2019-01-05T21:40:10.018Z,5.80
2019-01-05T21:42:59.339Z,5.50
2019-01-05T21:46:08.325Z,5.40
2019-01-05T21:49:10.962Z,5.80
2019-01-05T21:52:14.183Z,5.80
2019-01-05T21:55:14.065Z,5.33
2019-01-05T21:58:06.130Z,7.83
2019-01-05T22:00:55.353Z,6.67
2019-01-05T22:03:45.057Z,6.57
2019-01-05T22:06:50.611Z,6.13
2019-01-05T22:09:34.414Z,6.40
2019-01-05T22:12:25.378Z,6.50
2019-01-05T22:15:14.851Z,8.17
2019-01-05T22:18:18.167Z,7.13
2019-01-05T22:21:18.203Z,6.20
2019-01-05T22:24:07.630Z,7.57
2019-01-05T22:27:16.698Z,7.73
2019-01-05T22:30:13.059Z,6.13
2019-01-05T22:33:15.908Z,6.27
2019-01-05T22:36:27.174Z,7.70
2019-01-05T22:39:30.153Z,6.93
2019-01-05T22:42:27.070Z,7.40
2019-01-05T22:45:18.590Z,7.13
2019-01-05T22:48:28.100Z,11.70
2019-01-05T22:51:17.867Z,7.27
2019-01-05T22:54:11.870Z,7.90
2019-01-05T22:57:01.385Z,7.57
2019-01-05T22:59:50.848Z,6.93
2019-01-05T23:02:40.066Z,6.20
2019-01-05T23:05:33.842Z,8.53
2019-01-05T23:08:23.058Z,5.53
2019-01-05T23:11:07.266Z,6.63
2019-01-05T23:14:06.887Z,7.30
2019-01-05T23:16:56.643Z,6.70
2019-01-05T23:19:59.396Z,7.63
2019-01-05T23:22:48.098Z,6.57
2019-01-05T23:25:38.897Z,9.17
2019-01-05T23:28:32.664Z,7.10
2019-01-05T23:31:22.516Z,8.23
2019-01-05T23:34:12.168Z,6.57
2019-01-05T23:37:15.674Z,7.10
2019-01-05T23:40:04.889Z,7.37
2019-01-05T23:42:56.120Z,7.67
2019-01-05T23:45:46.036Z,9.10
2019-01-05T23:48:29.849Z,5.83
2019-01-05T23:51:30.006Z,8.77
2019-01-05T23:54:19.407Z,6.13
2019-01-05T23:57:08.711Z,9.87
